Página principal
METAR-TAF:

METAR-TAF

Aeroportos :

La Gomera, Espanha

latitude: 28-01-47N, longitude: 017-12-53W, altura: 218 m

Observação actual do tempo

O boletim foi feito há 15 minutos, às 06:30 UTC
Vento 7 kt de oeste, variando entre sudoeste e oes-noroeste
Temperatura 20°C
Humidade 88%
Pressão 1015 hPa
Visibilidade 10 km ou mais
Poucas nuvensa uma altura de 2000 ft

METAR: GCGM 120630Z 27007KT 230V300 9999 FEW020 20/18 Q1015 RMK R09/29005KT 260V320 ARP/30004KT 260V330

Hora: 07:45 (06:45 UTC)

Previsão

O boletim foi feito há 4 horas e 45 minutos, às 02:00 UTC
Previsão válida de 12 às 03 UTC a 13 às 03 UTC
Vento 8 kt de sudoeste
Visibilidade 10 km ou mais
Nuvens dispersasa uma altura de 1500 ft

TAF: GCGM 120200Z 1203/1303 22008KT 9999 SCT015 TX26/1214Z TN20/1206Z

Observações e previsões do tempo de mais de 4000 aeroportos (mensagens METAR e TAF).

As estações disponíveis são os pontos amarelos e vermelhos sobre o mapa.

Mova o rato sobre o mapa para ver o nome da estação.

Depois clique no ponto para visualizar as observações e previsões meteorológicas.

Para alterar o mapa : clique nos botões verdes com uma cruz preta para aumentar o zoom; no botão verde com uma pitada de zoom; ou nas setas verdes para mapas adjacentes.


METAR-TAF: